createdAt,value
2019-03-27T00:00:45.598Z,23.90
2019-03-27T00:01:45.578Z,23.00
2019-03-27T00:02:45.551Z,26.30
2019-03-27T00:03:45.534Z,19.70
2019-03-27T00:04:45.511Z,20.10
2019-03-27T00:05:45.483Z,20.70
2019-03-27T00:06:45.457Z,22.20
2019-03-27T00:07:45.435Z,21.20
2019-03-27T00:08:45.412Z,23.30
2019-03-27T00:09:45.394Z,26.00
2019-03-27T00:10:45.374Z,22.40
2019-03-27T00:11:45.341Z,24.20
2019-03-27T00:12:45.322Z,24.40
2019-03-27T00:13:45.295Z,22.00
2019-03-27T00:14:45.275Z,24.60
2019-03-27T00:15:45.250Z,24.00
2019-03-27T00:16:45.230Z,26.80
2019-03-27T00:17:45.200Z,23.10
2019-03-27T00:18:45.176Z,25.60
2019-03-27T00:19:45.157Z,21.60
2019-03-27T00:20:45.129Z,24.50
2019-03-27T00:21:45.107Z,25.40
2019-03-27T00:22:45.085Z,22.70
2019-03-27T00:23:45.066Z,25.00
2019-03-27T00:24:45.035Z,20.10
2019-03-27T00:25:45.013Z,21.70
2019-03-27T00:26:44.987Z,22.40
2019-03-27T00:27:44.965Z,23.90
2019-03-27T00:28:44.942Z,26.70
2019-03-27T00:29:44.916Z,22.60
2019-03-27T00:30:44.899Z,21.20
2019-03-27T00:31:44.876Z,25.80
2019-03-27T00:32:44.859Z,26.20
2019-03-27T00:33:44.823Z,25.70
2019-03-27T00:34:44.801Z,27.40
2019-03-27T00:35:44.779Z,24.50
2019-03-27T00:36:44.756Z,21.50
2019-03-27T00:37:44.731Z,26.20
2019-03-27T00:38:44.706Z,24.90
2019-03-27T00:39:44.685Z,30.30
2019-03-27T00:40:44.661Z,21.10
2019-03-27T00:41:44.637Z,21.30
2019-03-27T00:42:44.617Z,23.60
2019-03-27T00:43:44.595Z,24.20
2019-03-27T00:44:44.571Z,21.80
2019-03-27T00:45:44.542Z,27.10
2019-03-27T00:46:44.520Z,24.10
2019-03-27T00:47:44.496Z,23.60
2019-03-27T00:48:44.472Z,26.60
2019-03-27T00:49:44.448Z,21.60
2019-03-27T00:50:44.435Z,25.80
2019-03-27T00:51:44.407Z,28.70
2019-03-27T00:52:44.379Z,23.40
2019-03-27T00:53:44.360Z,25.30
2019-03-27T00:54:44.333Z,21.20
2019-03-27T00:55:44.308Z,29.80
2019-03-27T00:56:44.292Z,22.90
2019-03-27T00:57:44.263Z,21.50
2019-03-27T00:58:44.239Z,23.90
2019-03-27T00:59:44.217Z,27.20
2019-03-27T01:00:44.189Z,26.40
2019-03-27T01:01:44.170Z,20.00
2019-03-27T01:02:44.144Z,23.20
2019-03-27T01:03:44.124Z,23.90
2019-03-27T01:04:44.096Z,24.90
2019-03-27T01:05:44.076Z,23.70
2019-03-27T01:06:44.051Z,24.60
2019-03-27T01:07:44.028Z,27.10
2019-03-27T01:08:44.003Z,20.00
2019-03-27T01:09:43.980Z,27.20
2019-03-27T01:10:43.962Z,26.10
2019-03-27T01:11:43.934Z,28.70
2019-03-27T01:12:43.909Z,25.90
2019-03-27T01:13:43.893Z,23.80
2019-03-27T01:14:43.862Z,22.50
2019-03-27T01:15:43.840Z,28.30
2019-03-27T01:16:43.815Z,24.80
2019-03-27T01:17:43.795Z,27.50
2019-03-27T01:18:43.768Z,26.20
2019-03-27T01:19:43.758Z,26.00
2019-03-27T01:20:43.720Z,22.20
2019-03-27T01:21:43.695Z,27.00
2019-03-27T01:22:43.673Z,26.00
2019-03-27T01:23:43.650Z,24.10
2019-03-27T01:24:43.626Z,24.90
2019-03-27T01:25:43.607Z,27.20
2019-03-27T01:26:43.588Z,22.80
2019-03-27T01:27:43.556Z,24.70
2019-03-27T01:28:43.534Z,27.00
2019-03-27T01:29:43.509Z,27.70
2019-03-27T01:30:43.484Z,32.80
2019-03-27T01:31:43.465Z,26.70
2019-03-27T01:32:43.445Z,28.50
2019-03-27T01:33:43.416Z,29.70
2019-03-27T01:34:43.395Z,23.80
2019-03-27T01:35:43.367Z,27.80
2019-03-27T01:36:43.342Z,26.00
2019-03-27T01:37:43.320Z,29.10
2019-03-27T01:38:43.295Z,29.90
2019-03-27T01:39:43.273Z,27.90
2019-03-27T01:40:43.253Z,25.50
2019-03-27T01:41:43.222Z,26.50
2019-03-27T01:42:43.201Z,25.50
2019-03-27T01:43:43.176Z,28.30
2019-03-27T01:44:43.164Z,27.70
2019-03-27T01:45:52.410Z,27.90
2019-03-27T01:46:43.107Z,26.40
2019-03-27T01:47:43.081Z,30.90
2019-03-27T01:48:43.058Z,24.70
2019-03-27T01:49:43.045Z,27.40
2019-03-27T01:50:43.011Z,29.10
2019-03-27T01:51:42.988Z,28.30
2019-03-27T01:52:42.969Z,29.20
2019-03-27T01:53:42.940Z,30.40
2019-03-27T01:54:42.917Z,32.60
2019-03-27T01:55:42.896Z,30.10
2019-03-27T01:56:42.867Z,23.90
2019-03-27T01:57:42.843Z,30.80
2019-03-27T01:58:42.822Z,25.60
2019-03-27T01:59:42.807Z,27.40
2019-03-27T02:00:42.778Z,34.50
2019-03-27T02:01:42.748Z,30.40
2019-03-27T02:02:42.728Z,26.10
2019-03-27T02:03:42.703Z,27.60
2019-03-27T02:04:42.676Z,34.80
2019-03-27T02:05:42.654Z,25.00
2019-03-27T02:06:42.630Z,30.70
2019-03-27T02:07:42.610Z,29.30
2019-03-27T02:08:42.594Z,27.90
2019-03-27T02:09:42.560Z,31.40
2019-03-27T02:10:42.540Z,35.30
2019-03-27T02:11:42.511Z,29.10
2019-03-27T02:12:42.489Z,36.60
2019-03-27T02:13:42.463Z,28.70
2019-03-27T02:14:42.439Z,28.20
2019-03-27T02:15:42.415Z,27.00
2019-03-27T02:16:42.392Z,28.30
2019-03-27T02:17:42.371Z,24.70
2019-03-27T02:18:42.354Z,30.20
2019-03-27T02:19:42.321Z,30.10
2019-03-27T02:20:42.296Z,28.10
2019-03-27T02:21:42.271Z,28.80
2019-03-27T02:22:42.252Z,31.60
2019-03-27T02:23:42.226Z,27.10
2019-03-27T02:24:42.204Z,25.50
2019-03-27T02:25:42.178Z,27.30
2019-03-27T02:26:42.152Z,29.90
2019-03-27T02:27:42.128Z,24.60
2019-03-27T02:28:42.106Z,23.70
2019-03-27T02:29:42.082Z,29.50
2019-03-27T02:30:42.062Z,34.60
2019-03-27T02:31:42.036Z,25.80
2019-03-27T02:32:42.026Z,22.60
2019-03-27T02:33:41.989Z,27.70
2019-03-27T02:34:41.963Z,26.80
2019-03-27T02:35:41.949Z,29.40
2019-03-27T02:36:41.913Z,27.50
2019-03-27T02:37:41.893Z,23.10
2019-03-27T02:38:41.870Z,22.40
2019-03-27T02:39:41.847Z,24.60
2019-03-27T02:40:41.820Z,24.20
2019-03-27T02:41:41.804Z,24.40
2019-03-27T02:42:41.775Z,24.00
2019-03-27T02:43:41.753Z,23.60
2019-03-27T02:44:41.725Z,24.90
2019-03-27T02:45:41.698Z,31.90
2019-03-27T02:46:41.677Z,25.60
2019-03-27T02:47:41.656Z,24.60
2019-03-27T02:48:41.641Z,27.10
2019-03-27T02:49:41.604Z,20.60
2019-03-27T02:50:41.586Z,23.10
2019-03-27T02:51:41.558Z,21.60
2019-03-27T02:52:41.533Z,21.20
2019-03-27T02:53:41.515Z,22.20
2019-03-27T02:54:41.486Z,20.00
2019-03-27T02:55:41.464Z,20.30
2019-03-27T02:56:41.435Z,25.70
2019-03-27T02:57:41.419Z,21.50
2019-03-27T02:58:41.389Z,24.00
2019-03-27T02:59:41.370Z,21.00
2019-03-27T03:00:41.341Z,20.70
2019-03-27T03:01:41.327Z,25.90
2019-03-27T03:02:41.302Z,26.10
2019-03-27T03:03:41.274Z,24.80
2019-03-27T03:04:41.245Z,23.90
2019-03-27T03:05:41.222Z,25.50
2019-03-27T03:06:41.203Z,26.70
2019-03-27T03:07:41.173Z,26.80
2019-03-27T03:08:41.149Z,26.60
2019-03-27T03:09:41.136Z,24.00
2019-03-27T03:10:45.246Z,22.10
2019-03-27T03:11:41.078Z,23.60
2019-03-27T03:12:41.056Z,21.40
2019-03-27T03:13:41.031Z,28.50
2019-03-27T03:14:41.006Z,27.40
2019-03-27T03:15:40.983Z,25.50
2019-03-27T03:16:43.131Z,28.20
2019-03-27T03:17:40.935Z,26.10
2019-03-27T03:18:40.908Z,24.40
2019-03-27T03:19:40.896Z,28.90
2019-03-27T03:20:40.861Z,24.20
2019-03-27T03:21:40.838Z,29.90
2019-03-27T03:22:40.818Z,29.60
2019-03-27T03:23:40.790Z,26.40
2019-03-27T03:24:40.764Z,28.50
2019-03-27T03:25:40.749Z,25.60
2019-03-27T03:26:40.716Z,23.70
2019-03-27T03:27:40.768Z,23.60
2019-03-27T03:28:40.665Z,25.60
2019-03-27T03:29:40.644Z,29.50
2019-03-27T03:30:40.622Z,27.90
2019-03-27T03:31:40.645Z,27.40
2019-03-27T03:32:40.605Z,29.60
2019-03-27T03:33:40.564Z,31.90
2019-03-27T03:34:40.537Z,29.00
2019-03-27T03:35:40.502Z,24.30
2019-03-27T03:36:40.476Z,29.10
2019-03-27T03:37:40.454Z,26.70
2019-03-27T03:38:40.432Z,26.50
2019-03-27T03:39:40.400Z,22.90
2019-03-27T03:40:40.382Z,25.30
2019-03-27T03:41:40.355Z,24.70
2019-03-27T03:42:40.330Z,26.20
2019-03-27T03:43:40.304Z,25.90
2019-03-27T03:44:40.279Z,25.70
2019-03-27T03:45:40.257Z,30.80
2019-03-27T03:46:40.235Z,29.20
2019-03-27T03:47:40.215Z,33.10
2019-03-27T03:48:40.185Z,31.90
2019-03-27T03:49:40.164Z,30.00
2019-03-27T03:50:40.142Z,38.20
2019-03-27T03:51:40.112Z,40.00
2019-03-27T03:52:40.086Z,34.50
2019-03-27T03:53:40.064Z,31.10
2019-03-27T03:54:40.040Z,34.70
2019-03-27T03:55:40.022Z,37.20
2019-03-27T03:56:39.991Z,41.00
2019-03-27T03:57:39.969Z,38.80
2019-03-27T03:58:39.946Z,36.70
2019-03-27T03:59:39.926Z,35.20
2019-03-27T04:00:39.892Z,37.10
2019-03-27T04:01:39.873Z,30.90
2019-03-27T04:02:39.847Z,36.20
2019-03-27T04:03:39.826Z,32.50
2019-03-27T04:04:39.799Z,31.80
2019-03-27T04:05:39.777Z,33.00
2019-03-27T04:06:39.748Z,29.60
2019-03-27T04:07:39.724Z,30.40
2019-03-27T04:08:39.698Z,31.90
2019-03-27T04:09:39.679Z,31.60
2019-03-27T04:10:39.650Z,31.50
2019-03-27T04:11:39.626Z,32.30
2019-03-27T04:12:39.607Z,33.80
2019-03-27T04:13:39.586Z,36.00
2019-03-27T04:14:39.554Z,42.50
2019-03-27T04:15:39.528Z,38.40
2019-03-27T04:16:39.503Z,36.60
2019-03-27T04:17:39.479Z,30.40
2019-03-27T04:18:39.461Z,30.20
2019-03-27T04:19:39.432Z,33.50
2019-03-27T04:20:39.412Z,33.40
2019-03-27T04:21:39.383Z,34.40
2019-03-27T04:22:39.366Z,34.80
2019-03-27T04:23:39.335Z,34.40
2019-03-27T04:24:39.310Z,33.10
2019-03-27T04:26:07.297Z,36.10
2019-03-27T04:26:39.281Z,33.30
2019-03-27T04:27:39.243Z,30.80
2019-03-27T04:28:39.213Z,34.90
2019-03-27T04:29:39.191Z,34.20
2019-03-27T04:30:39.168Z,35.00
2019-03-27T04:31:39.145Z,30.60
2019-03-27T04:32:39.117Z,31.30
2019-03-27T04:33:39.093Z,30.80
2019-03-27T04:34:39.067Z,31.30
2019-03-27T04:35:39.042Z,31.90
2019-03-27T04:36:39.022Z,27.10
2019-03-27T04:37:38.997Z,32.10
2019-03-27T04:38:38.971Z,33.80
2019-03-27T04:39:38.955Z,30.00
2019-03-27T04:40:38.924Z,30.20
2019-03-27T04:41:38.898Z,29.40
2019-03-27T04:42:38.890Z,27.90
2019-03-27T04:43:38.856Z,28.90
2019-03-27T04:44:38.831Z,30.70
2019-03-27T04:45:38.804Z,29.10
2019-03-27T04:46:38.789Z,34.40
2019-03-27T04:47:38.757Z,27.70
2019-03-27T04:48:38.733Z,29.70
2019-03-27T04:49:38.706Z,31.20
2019-03-27T04:50:38.684Z,31.00
2019-03-27T04:51:38.660Z,31.20
2019-03-27T04:52:38.639Z,29.60
2019-03-27T04:53:38.610Z,27.80
2019-03-27T04:54:38.589Z,23.10
2019-03-27T04:55:38.562Z,26.50
2019-03-27T04:56:38.541Z,33.20
2019-03-27T04:57:38.518Z,33.00
2019-03-27T04:58:38.490Z,24.70
2019-03-27T04:59:38.467Z,27.70
2019-03-27T05:00:38.450Z,24.00
2019-03-27T05:01:38.414Z,27.50
2019-03-27T05:02:38.394Z,31.30
2019-03-27T05:03:38.372Z,21.70
2019-03-27T05:04:38.344Z,23.30
2019-03-27T05:05:38.316Z,23.00
2019-03-27T05:06:38.295Z,21.90
2019-03-27T05:07:38.277Z,26.50
2019-03-27T05:08:38.247Z,26.70
2019-03-27T05:09:38.221Z,27.50
2019-03-27T05:10:38.203Z,22.70
2019-03-27T05:11:38.175Z,22.90
2019-03-27T05:12:38.806Z,22.80
2019-03-27T05:13:38.125Z,27.50
2019-03-27T05:14:38.101Z,21.60
2019-03-27T05:15:38.079Z,24.30
2019-03-27T05:16:38.055Z,23.40
2019-03-27T05:17:45.809Z,24.60
2019-03-27T05:18:38.004Z,26.40
2019-03-27T05:19:37.986Z,30.20
2019-03-27T05:20:37.954Z,19.30
2019-03-27T05:21:37.932Z,34.60
2019-03-27T05:22:37.905Z,26.30
2019-03-27T05:23:37.883Z,26.80
2019-03-27T05:24:37.861Z,25.80
2019-03-27T05:25:37.833Z,26.70
2019-03-27T05:26:37.810Z,28.90
2019-03-27T05:27:37.787Z,28.20
2019-03-27T05:28:37.760Z,27.00
2019-03-27T05:29:37.749Z,24.90
2019-03-27T05:30:37.715Z,29.60
2019-03-27T05:31:37.692Z,26.40
2019-03-27T05:32:37.670Z,27.20
2019-03-27T05:33:37.643Z,23.70
2019-03-27T05:34:37.616Z,24.90
2019-03-27T05:35:37.596Z,24.70
2019-03-27T05:36:37.568Z,22.40
2019-03-27T05:37:37.547Z,21.90
2019-03-27T05:38:37.523Z,23.30
2019-03-27T05:39:37.503Z,25.50
2019-03-27T05:40:37.477Z,27.10
2019-03-27T05:41:37.468Z,22.50
2019-03-27T05:42:37.430Z,24.10
2019-03-27T05:43:37.402Z,22.30
2019-03-27T05:44:37.378Z,23.60
2019-03-27T05:45:37.356Z,22.60
2019-03-27T05:46:37.330Z,24.20
2019-03-27T05:47:37.305Z,22.80
2019-03-27T05:48:37.281Z,20.70
2019-03-27T05:49:37.258Z,22.90
2019-03-27T05:50:37.234Z,23.80
2019-03-27T05:51:37.209Z,24.80
2019-03-27T05:52:37.193Z,24.30
2019-03-27T05:53:37.166Z,25.50
2019-03-27T05:54:37.137Z,30.40
2019-03-27T05:55:37.113Z,24.20
2019-03-27T05:56:37.093Z,23.20
2019-03-27T05:57:37.068Z,31.60
2019-03-27T05:58:37.047Z,24.10
2019-03-27T05:59:37.022Z,20.20
2019-03-27T06:00:36.997Z,24.20
2019-03-27T06:01:36.968Z,19.80
2019-03-27T06:02:36.946Z,25.40
2019-03-27T06:03:36.922Z,23.00
2019-03-27T06:04:36.899Z,24.80
2019-03-27T06:05:36.874Z,20.10
2019-03-27T06:06:36.851Z,23.00
2019-03-27T06:07:36.827Z,23.50
2019-03-27T06:08:36.805Z,24.60
2019-03-27T06:09:36.785Z,23.90
2019-03-27T06:10:36.760Z,25.60
2019-03-27T06:11:36.732Z,23.50
2019-03-27T06:12:36.706Z,20.40
2019-03-27T06:13:36.682Z,20.60
2019-03-27T06:14:36.659Z,23.40
2019-03-27T06:15:36.637Z,26.50
2019-03-27T06:16:36.612Z,22.00
2019-03-27T06:17:36.592Z,18.00
2019-03-27T06:18:36.564Z,22.60
2019-03-27T06:19:36.552Z,20.10
2019-03-27T06:20:36.515Z,20.40
2019-03-27T06:21:36.502Z,22.10
2019-03-27T06:22:36.481Z,20.20
2019-03-27T06:23:36.447Z,24.30
2019-03-27T06:24:36.422Z,22.00
2019-03-27T06:25:36.399Z,20.60
2019-03-27T06:26:36.383Z,21.70
2019-03-27T06:27:36.358Z,29.30
2019-03-27T06:28:36.326Z,24.00
2019-03-27T06:29:36.303Z,25.40
2019-03-27T06:30:36.280Z,22.40
2019-03-27T06:31:36.259Z,27.00
2019-03-27T06:32:36.243Z,26.10
2019-03-27T06:33:36.207Z,26.50
2019-03-27T06:34:36.192Z,26.00
2019-03-27T06:35:36.161Z,23.80
2019-03-27T06:36:36.134Z,18.50
2019-03-27T06:37:36.112Z,25.20
2019-03-27T06:38:36.088Z,22.30
2019-03-27T06:39:36.065Z,23.70
2019-03-27T06:40:36.040Z,23.20
2019-03-27T06:41:36.014Z,26.40
2019-03-27T06:42:35.990Z,26.90
2019-03-27T06:43:35.969Z,23.60
2019-03-27T06:44:35.946Z,28.30
2019-03-27T06:45:35.919Z,23.80
2019-03-27T06:46:35.895Z,16.40
2019-03-27T06:47:35.873Z,24.90
2019-03-27T06:48:35.854Z,25.10
2019-03-27T06:49:35.824Z,25.00
2019-03-27T06:50:35.800Z,23.00
2019-03-27T06:51:40.383Z,25.70
2019-03-27T06:52:35.756Z,24.00
2019-03-27T06:53:35.732Z,32.50
2019-03-27T06:54:35.707Z,23.70
2019-03-27T06:55:35.684Z,24.60
2019-03-27T06:56:35.667Z,26.80
2019-03-27T06:57:35.636Z,25.40
2019-03-27T06:58:35.610Z,25.70
2019-03-27T06:59:35.593Z,29.10
2019-03-27T07:00:35.568Z,26.40
2019-03-27T07:01:35.539Z,28.70
2019-03-27T07:02:35.519Z,26.90
2019-03-27T07:03:35.494Z,23.80
2019-03-27T07:04:35.469Z,27.10
2019-03-27T07:05:35.446Z,24.40
2019-03-27T07:06:35.422Z,25.00
2019-03-27T07:07:35.400Z,22.00
2019-03-27T07:08:35.374Z,22.60
2019-03-27T07:09:35.353Z,26.20
2019-03-27T07:10:35.327Z,21.90
2019-03-27T07:11:35.319Z,29.60
2019-03-27T07:12:35.279Z,23.60
2019-03-27T07:13:35.261Z,23.50
2019-03-27T07:14:35.232Z,24.40
2019-03-27T07:15:35.854Z,18.80
2019-03-27T07:16:35.187Z,23.50
2019-03-27T07:17:35.162Z,23.80
2019-03-27T07:18:40.348Z,25.30
2019-03-27T07:19:35.116Z,24.70
2019-03-27T07:20:35.090Z,20.70
2019-03-27T07:21:35.081Z,24.60
2019-03-27T07:22:35.052Z,22.30
2019-03-27T07:23:35.020Z,20.30
2019-03-27T07:24:34.997Z,24.40
2019-03-27T07:25:34.978Z,24.30
2019-03-27T07:26:34.957Z,31.90
2019-03-27T07:27:34.928Z,21.60
2019-03-27T07:28:34.910Z,21.10
2019-03-27T07:29:34.878Z,26.20
2019-03-27T07:30:34.869Z,25.50
2019-03-27T07:31:34.839Z,26.50
2019-03-27T07:32:34.807Z,27.80
2019-03-27T07:33:34.785Z,19.90
2019-03-27T07:34:34.763Z,20.30
2019-03-27T07:35:34.750Z,20.00
2019-03-27T07:36:34.714Z,21.10
2019-03-27T07:37:34.692Z,22.70
2019-03-27T07:38:34.687Z,19.70
2019-03-27T07:39:34.645Z,22.00
2019-03-27T07:40:34.627Z,23.00
2019-03-27T07:41:34.599Z,19.60
2019-03-27T07:42:34.576Z,21.60
2019-03-27T07:43:34.554Z,18.00
2019-03-27T07:44:34.526Z,22.10
2019-03-27T07:45:34.501Z,18.20
2019-03-27T07:46:34.478Z,17.10
2019-03-27T07:47:34.456Z,16.80
2019-03-27T07:48:34.439Z,20.60
2019-03-27T07:49:34.412Z,18.60
2019-03-27T07:50:34.398Z,22.40
2019-03-27T07:51:34.364Z,17.30
2019-03-27T07:52:34.338Z,20.20
2019-03-27T07:53:34.314Z,22.40
2019-03-27T07:54:34.294Z,21.30
2019-03-27T07:55:34.274Z,16.90
2019-03-27T07:56:34.313Z,22.40
2019-03-27T07:57:34.220Z,19.60
2019-03-27T07:58:34.198Z,15.80
2019-03-27T07:59:34.177Z,15.50
2019-03-27T08:00:34.150Z,17.30
2019-03-27T08:01:34.134Z,19.70
2019-03-27T08:02:34.116Z,15.10
2019-03-27T08:03:34.088Z,15.00
2019-03-27T08:04:34.057Z,14.50
2019-03-27T08:05:34.039Z,19.40
2019-03-27T08:06:34.011Z,15.90
2019-03-27T08:07:33.991Z,19.80
2019-03-27T08:08:33.963Z,13.00
2019-03-27T08:09:33.941Z,17.80
2019-03-27T08:10:33.923Z,16.60
2019-03-27T08:11:34.011Z,18.30
2019-03-27T08:12:33.872Z,18.20
2019-03-27T08:13:33.948Z,19.80
2019-03-27T08:14:33.828Z,15.90
2019-03-27T08:15:33.800Z,17.00
2019-03-27T08:16:33.776Z,19.60
2019-03-27T08:17:33.758Z,17.60
2019-03-27T08:18:33.730Z,15.20
2019-03-27T08:19:33.712Z,17.80
2019-03-27T08:20:33.683Z,17.60
2019-03-27T08:21:33.662Z,21.30
2019-03-27T08:22:33.635Z,15.00
2019-03-27T08:23:33.618Z,15.20
2019-03-27T08:24:33.589Z,15.00
2019-03-27T08:25:33.565Z,14.90
2019-03-27T08:26:33.545Z,18.70
2019-03-27T08:27:33.518Z,19.10
2019-03-27T08:28:33.496Z,15.30
2019-03-27T08:29:33.476Z,14.70
2019-03-27T08:30:33.450Z,15.10
2019-03-27T08:31:33.428Z,18.20
2019-03-27T08:32:33.404Z,13.00
2019-03-27T08:33:33.380Z,18.60
2019-03-27T08:34:33.369Z,21.30
2019-03-27T08:35:33.339Z,17.80
2019-03-27T08:36:33.311Z,19.70
2019-03-27T08:37:33.294Z,17.70
2019-03-27T08:38:33.267Z,20.70
2019-03-27T08:39:33.244Z,19.90
2019-03-27T08:40:33.218Z,18.20
2019-03-27T08:41:33.207Z,16.00
2019-03-27T08:42:33.171Z,17.90
2019-03-27T08:43:33.149Z,18.20
2019-03-27T08:44:33.137Z,21.70
2019-03-27T08:45:33.103Z,17.90
2019-03-27T08:46:33.082Z,16.80
2019-03-27T08:47:33.060Z,20.70
2019-03-27T08:48:33.037Z,14.90
2019-03-27T08:49:33.014Z,18.50
2019-03-27T08:50:32.989Z,18.20
2019-03-27T08:51:32.965Z,20.50
2019-03-27T08:52:32.943Z,17.30
2019-03-27T08:53:32.929Z,15.70
2019-03-27T08:54:32.902Z,19.20
2019-03-27T08:55:32.875Z,18.60
2019-03-27T08:56:32.848Z,19.20
2019-03-27T08:57:32.827Z,19.20
2019-03-27T08:58:32.805Z,19.80
2019-03-27T08:59:32.799Z,20.00
2019-03-27T09:00:32.759Z,18.90
2019-03-27T09:01:32.744Z,20.90
2019-03-27T09:02:32.719Z,17.40
2019-03-27T09:03:32.691Z,15.40
2019-03-27T09:04:32.678Z,17.00
2019-03-27T09:05:32.649Z,19.60
2019-03-27T09:06:34.039Z,22.30
2019-03-27T09:07:32.601Z,18.40
2019-03-27T09:08:32.576Z,19.20
2019-03-27T09:09:32.553Z,20.40
2019-03-27T09:10:32.532Z,20.00
2019-03-27T09:11:32.510Z,21.80
2019-03-27T09:12:32.489Z,19.90
2019-03-27T09:13:32.465Z,19.00
2019-03-27T09:14:32.443Z,19.20
2019-03-27T09:15:32.417Z,18.00
2019-03-27T09:16:32.393Z,20.20
2019-03-27T09:17:32.372Z,22.00
2019-03-27T09:18:32.350Z,17.20
2019-03-27T09:19:36.085Z,16.40
2019-03-27T09:20:32.304Z,19.10
2019-03-27T09:21:32.285Z,18.30
2019-03-27T09:22:32.263Z,16.70
2019-03-27T09:23:32.242Z,18.70
2019-03-27T09:24:32.217Z,18.50
2019-03-27T09:25:32.193Z,19.40
2019-03-27T09:26:32.175Z,18.20
2019-03-27T09:27:32.149Z,16.00
2019-03-27T09:28:32.153Z,15.90
2019-03-27T09:29:32.113Z,16.80
2019-03-27T09:30:32.084Z,16.00
2019-03-27T09:31:43.947Z,17.80
2019-03-27T09:32:32.035Z,16.60
2019-03-27T09:33:32.022Z,14.60
2019-03-27T09:34:31.995Z,14.00
2019-03-27T09:35:31.977Z,16.60
2019-03-27T09:36:31.947Z,15.70
2019-03-27T09:37:31.939Z,13.40
2019-03-27T09:38:31.922Z,15.40
2019-03-27T09:39:31.882Z,15.70
2019-03-27T09:40:31.860Z,15.10
2019-03-27T09:41:31.839Z,14.40
2019-03-27T09:42:31.819Z,11.90
2019-03-27T09:43:31.794Z,12.70
2019-03-27T09:44:31.775Z,11.20
2019-03-27T09:45:31.751Z,17.10
2019-03-27T09:46:31.732Z,11.80
2019-03-27T09:47:34.512Z,13.20
2019-03-27T09:48:31.689Z,18.40
2019-03-27T09:49:31.663Z,14.20
2019-03-27T09:50:31.638Z,16.60
2019-03-27T09:51:31.627Z,13.40
2019-03-27T09:52:31.613Z,17.10
2019-03-27T09:53:31.580Z,17.80
2019-03-27T09:54:31.564Z,12.90
2019-03-27T09:55:31.530Z,15.20
2019-03-27T09:56:31.514Z,14.70
2019-03-27T09:57:31.490Z,15.10
2019-03-27T09:58:31.468Z,16.20
2019-03-27T09:59:31.442Z,12.90
2019-03-27T10:00:31.420Z,14.60
2019-03-27T10:01:31.399Z,12.70
2019-03-27T10:02:31.376Z,11.70
2019-03-27T10:03:31.354Z,12.40
2019-03-27T10:04:31.334Z,16.50
2019-03-27T10:05:31.311Z,14.20
2019-03-27T10:06:31.286Z,16.00
2019-03-27T10:07:31.266Z,14.50
2019-03-27T10:08:31.244Z,16.70
2019-03-27T10:09:31.221Z,11.30
2019-03-27T10:10:31.201Z,11.60
2019-03-27T10:11:31.177Z,12.10
2019-03-27T10:12:31.161Z,14.00
2019-03-27T10:13:31.129Z,13.40
2019-03-27T10:14:31.112Z,12.90
2019-03-27T10:15:31.086Z,15.60
2019-03-27T10:16:31.075Z,12.20
2019-03-27T10:17:31.059Z,12.60
2019-03-27T10:18:31.020Z,13.00
2019-03-27T10:19:30.999Z,12.00
2019-03-27T10:20:30.975Z,12.70
2019-03-27T10:21:30.963Z,10.90
2019-03-27T10:22:30.931Z,11.70
2019-03-27T10:23:30.910Z,11.50
2019-03-27T10:24:30.888Z,9.80
2019-03-27T10:25:30.872Z,10.60
2019-03-27T10:26:30.847Z,11.80
2019-03-27T10:27:30.824Z,12.20
2019-03-27T10:28:30.803Z,10.10
2019-03-27T10:29:30.778Z,10.80
2019-03-27T10:30:30.753Z,8.80
2019-03-27T10:31:30.743Z,10.90
2019-03-27T10:32:30.708Z,13.80
2019-03-27T10:33:30.688Z,12.80
2019-03-27T10:34:30.670Z,13.30
2019-03-27T10:35:30.642Z,10.00
2019-03-27T10:36:30.617Z,9.80
2019-03-27T10:37:30.600Z,10.20
2019-03-27T10:38:30.587Z,10.60
2019-03-27T10:39:30.553Z,11.80
2019-03-27T10:40:30.529Z,11.80
2019-03-27T10:41:30.510Z,12.30
2019-03-27T10:42:30.495Z,12.30
2019-03-27T10:43:30.463Z,10.90
2019-03-27T10:44:30.442Z,15.70
2019-03-27T10:45:30.418Z,12.40
2019-03-27T10:46:30.396Z,12.10
2019-03-27T10:47:30.375Z,11.90
2019-03-27T10:48:30.356Z,10.40
2019-03-27T10:49:30.330Z,11.00
2019-03-27T10:50:30.310Z,14.40
2019-03-27T10:51:30.286Z,11.60
2019-03-27T10:52:30.290Z,8.10
2019-03-27T10:53:30.247Z,8.60
2019-03-27T10:54:30.220Z,9.60
2019-03-27T10:55:30.206Z,11.50
2019-03-27T10:56:30.173Z,12.40
2019-03-27T10:57:30.153Z,10.50
2019-03-27T10:58:30.182Z,10.40
2019-03-27T10:59:30.111Z,10.50
2019-03-27T11:00:30.087Z,12.40
2019-03-27T11:01:30.066Z,9.50
2019-03-27T11:02:30.043Z,11.20
2019-03-27T11:03:30.024Z,11.50
2019-03-27T11:04:30.002Z,9.40
2019-03-27T11:05:29.978Z,9.20
2019-03-27T11:06:29.957Z,11.40
2019-03-27T11:07:29.936Z,8.60
2019-03-27T11:08:29.924Z,9.90
2019-03-27T11:09:29.899Z,10.40
2019-03-27T11:10:29.870Z,7.90
2019-03-27T11:11:29.853Z,11.40
2019-03-27T11:12:29.825Z,11.10
2019-03-27T11:13:29.803Z,9.50
2019-03-27T11:14:37.749Z,10.80
2019-03-27T11:15:29.761Z,8.80
2019-03-27T11:16:29.745Z,8.30
2019-03-27T11:17:29.715Z,8.50
2019-03-27T11:18:29.696Z,11.60
2019-03-27T11:19:29.787Z,8.50
2019-03-27T11:20:31.393Z,10.10
2019-03-27T11:21:29.628Z,8.20
2019-03-27T11:22:29.613Z,7.80
2019-03-27T11:23:29.584Z,9.60
2019-03-27T11:24:29.568Z,9.30
2019-03-27T11:25:32.922Z,8.40
2019-03-27T11:26:29.520Z,9.00
2019-03-27T11:27:29.499Z,9.40
2019-03-27T11:28:29.486Z,9.10
2019-03-27T11:29:29.451Z,9.70
2019-03-27T11:30:29.435Z,12.60
2019-03-27T11:31:29.408Z,12.40
2019-03-27T11:32:29.387Z,8.10
2019-03-27T11:33:29.366Z,12.60
2019-03-27T11:34:29.342Z,11.50
2019-03-27T11:35:29.323Z,10.30
2019-03-27T11:36:29.311Z,11.40
2019-03-27T11:37:29.282Z,14.10
2019-03-27T11:38:29.269Z,9.70
2019-03-27T11:39:29.240Z,11.40
2019-03-27T11:40:29.215Z,9.50
2019-03-27T11:41:29.195Z,8.40
2019-03-27T11:42:29.184Z,12.00
2019-03-27T11:43:29.157Z,10.40
2019-03-27T11:44:29.130Z,10.90
2019-03-27T11:45:29.109Z,9.40
2019-03-27T11:46:32.110Z,10.70
2019-03-27T11:47:29.066Z,9.50
2019-03-27T11:48:29.051Z,10.40
2019-03-27T11:49:29.030Z,9.40
2019-03-27T11:50:29.000Z,10.00
2019-03-27T11:51:28.985Z,8.40
2019-03-27T11:52:29.842Z,10.50
2019-03-27T11:53:28.936Z,8.90
2019-03-27T11:54:28.914Z,12.40
2019-03-27T11:55:28.894Z,9.30
2019-03-27T11:56:28.878Z,11.90
2019-03-27T11:57:28.855Z,8.40
2019-03-27T11:58:28.824Z,11.00
2019-03-27T11:59:28.807Z,10.60
2019-03-27T12:00:28.786Z,9.80
2019-03-27T12:01:39.228Z,8.90
2019-03-27T12:02:28.740Z,10.10
2019-03-27T12:03:28.718Z,9.50
2019-03-27T12:04:28.699Z,9.20
2019-03-27T12:05:28.673Z,7.40
2019-03-27T12:06:28.659Z,6.20
2019-03-27T12:07:28.636Z,9.90
2019-03-27T12:08:28.614Z,9.90
2019-03-27T12:09:28.587Z,10.10
2019-03-27T12:10:28.566Z,9.20
2019-03-27T12:11:28.553Z,11.30
2019-03-27T12:12:28.523Z,11.30
2019-03-27T12:13:28.501Z,12.90
2019-03-27T12:14:28.484Z,12.10
2019-03-27T12:15:28.460Z,8.30
2019-03-27T12:16:28.435Z,11.30
2019-03-27T12:17:28.414Z,10.20
2019-03-27T12:18:28.398Z,9.10
2019-03-27T12:19:28.381Z,7.50
2019-03-27T12:20:28.348Z,9.60
2019-03-27T12:21:28.332Z,8.20
2019-03-27T12:22:28.307Z,10.10
2019-03-27T12:23:28.284Z,8.30
2019-03-27T12:24:28.912Z,10.60
2019-03-27T12:25:28.242Z,8.60
2019-03-27T12:26:28.231Z,10.50
2019-03-27T12:27:28.206Z,12.00
2019-03-27T12:28:28.176Z,10.40
2019-03-27T12:29:28.155Z,10.60
2019-03-27T12:30:28.136Z,10.20
2019-03-27T12:31:28.126Z,9.50
2019-03-27T12:32:28.097Z,10.10
2019-03-27T12:33:28.073Z,9.90
2019-03-27T12:34:28.047Z,8.30
2019-03-27T12:35:28.031Z,9.00
2019-03-27T12:36:28.006Z,9.60
2019-03-27T12:37:27.985Z,7.20
2019-03-27T12:38:27.962Z,9.50
2019-03-27T12:39:27.951Z,12.20
2019-03-27T12:40:27.924Z,9.50
2019-03-27T12:41:27.903Z,8.80
2019-03-27T12:42:27.892Z,7.70
2019-03-27T12:43:27.858Z,8.60
2019-03-27T12:44:27.832Z,9.40
2019-03-27T12:45:27.810Z,9.60
2019-03-27T12:46:27.789Z,8.70
2019-03-27T12:47:27.767Z,13.60
2019-03-27T12:48:27.753Z,7.20
2019-03-27T12:49:27.737Z,8.70
2019-03-27T12:50:27.708Z,10.50
2019-03-27T12:51:27.699Z,9.30
2019-03-27T12:52:27.664Z,6.80
2019-03-27T12:53:27.651Z,12.70
2019-03-27T12:54:27.619Z,9.00
2019-03-27T12:55:27.597Z,8.90